Detalhes do Voo

Voltar

 DETALHES DO VÔO

Piloto: GLD1355 Thiago M. Aeronave: Piper Distância: 35NM
Origem: SNPD Destino: FBKW Duração: 0.97
Validação: Rejeitado Tipo: Charter Matrícula: PT-GLD
ZFW: 2523 Block Fuel/Init FOB 104/0 Combustível em Voo 104
Passageiros: 2 Carga: 20 Alternativo: SWNS
Hora da Decolagem: 1744 Velocidade de Cruzeiro: 0170 Nível de Voo: FL105
Regra Visual: VFR ICAO da Aeronave: P28A Unidade de Peso: Kg
Data: 25/09/2024 Observação: GOLD ACARS Rede: VATSIM
Acidentou?: Não Comentários do Validador: Não atingiu o rating minimo de 70.0 Pontuação do Voo 0

 ROTA

ROTA REA 1803S04725W 1751S04834W N0171A45 1658S04914W
REMARKS OPR/GOLD VIRTUAL AIRLINES PER/A RMK/FROM SBGO RMK/PIC GLD1355 PORTAO HIDROLANDIA

 PENALIDADES DO VOO

Para entender como cada item é pontuado, consulte as regras de avaliação.

Nenhuma penalidade registrada para este voo.

 ANÁLISE DO POUSO

Vento durante o pouso: 0º/0 kt Proa durante o pouso: 0
V/S do Pouso: 0 ft/min IAS do Pouso: 0 kt
Força G no pouso: 0 G Bank no pouso: 0
Pitch no Pouso 0 Flaps no Pouso 0
Nav Lights OFF Landing Lights OFF
Beacon Lights OFF Strobe Lights OFF

 MAPA DO VOO

 PERFIL VERTICAL DO VOO

 EVENTOS PRINCIPAIS DO VOO

DATAEVENTOIASALTITUDE
2024-09-25 17:44:41 GOLD ACARS VERSION 3.3.2.200
2024-09-25 17:44:41 BOARDING12807
2024-09-25 17:44:57 LND LIGHTS ON12807
2024-09-25 17:45:23 LND LIGHTS OFF12807
2024-09-25 17:45:40 STARTING ENGINE 112807
2024-09-25 17:46:23 STB LIGHTS ON22807
2024-09-25 17:46:24 STB LIGHTS OFF22807
2024-09-25 17:46:24 TAXI LIGHTS ON22807
2024-09-25 17:48:33 TAXI TO THE RWY122801
2024-09-25 17:50:45 STB LIGHTS ON22790
2024-09-25 17:50:46 LND LIGHTS ON22790
2024-09-25 17:50:49 TAXI LIGHTS OFF22790
2024-09-25 17:51:29 NAV LIGHTS OFF42790
2024-09-25 17:51:30 NAV LIGHTS ON42790
2024-09-25 17:55:43 GEAR UP852816
2024-09-25 17:55:48 CLIMBING952849
2024-09-25 17:56:29 CRUISE993825
2024-09-25 17:56:36 LANDING1143821
2024-09-25 17:56:49 AP ENGAGED1323787
2024-09-25 17:56:49 CLIMBING1323791
2024-09-25 18:07:01 LIGHTS ON ABOVE 10000 ft11310503
2024-09-25 18:07:03 CRUISE11410521
2024-09-25 18:42:40 LANDED NOT IN THE PLANNED AIRPORT [SBGO] - [lat: -18,3619109524318] - [long: -46,9503016108822]13610509
2024-09-25 18:42:41 FLIGHT FINISHED13610509

 DADOS DO ACARS

DATA IAS GS ALTITUDE COMBUSTÍVEL USADO OAT FASE DO VOO
2024-09-25 17:46:42 2 0 2807 0 33 BOARDING
2024-09-25 17:47:43 2 0 2807 0 33 BOARDING
2024-09-25 17:48:43 1 6 2806 0 32 BOARDING
2024-09-25 17:49:44 2 0 2799 0 32 TAXI TO THE RWY
2024-09-25 17:50:44 3 0 2790 0 32 TAXI TO THE RWY
2024-09-25 17:51:45 6 4 2789 0 32 TAXI TO THE RWY
2024-09-25 17:52:46 0 8 2791 0 32 TAXI TO THE RWY
2024-09-25 17:53:46 6 12 2792 0 32 TAXI TO THE RWY
2024-09-25 17:54:47 6 0 2792 0 32 TAXI TO THE RWY
2024-09-25 17:55:47 95 96 2843 1 32 TAXI TO THE RWY
2024-09-25 17:56:48 132 154 3779 2 28 TAXI TO THE RWY
2024-09-25 17:57:49 134 158 4446 3 25 LANDING
2024-09-25 17:58:49 137 161 5133 4 23 CLIMBING
2024-09-25 17:59:50 133 156 5800 5 21 CLIMBING
2024-09-25 18:00:50 132 159 6428 6 19 CLIMBING
2024-09-25 18:01:51 128 154 7067 7 17 CLIMBING
2024-09-25 18:02:52 127 153 7735 7 15 CLIMBING
2024-09-25 18:03:52 121 149 8394 8 13 CLIMBING
2024-09-25 18:04:53 119 147 9083 9 11 CLIMBING
2024-09-25 18:05:54 117 146 9780 9 9 CLIMBING
2024-09-25 18:06:54 114 143 10431 10 7 CLIMBING
2024-09-25 18:07:55 133 169 10508 11 7 CLIMBING
2024-09-25 18:08:55 136 173 10509 11 7 CRUISE
2024-09-25 18:09:56 137 173 10509 12 7 CRUISE
2024-09-25 18:10:57 137 173 10509 13 7 CRUISE
2024-09-25 18:11:57 137 173 10509 13 7 CRUISE
2024-09-25 18:12:58 137 173 10509 14 7 CRUISE
2024-09-25 18:13:59 137 173 10509 14 7 CRUISE
2024-09-25 18:14:59 137 173 10509 15 7 CRUISE
2024-09-25 18:16:00 137 173 10509 15 7 CRUISE
2024-09-25 18:17:00 137 173 10509 16 7 CRUISE
2024-09-25 18:18:01 137 173 10509 16 7 CRUISE
2024-09-25 18:19:02 137 173 10509 17 7 CRUISE
2024-09-25 18:20:02 137 173 10509 17 7 CRUISE
2024-09-25 18:21:03 137 173 10509 18 7 CRUISE
2024-09-25 18:22:04 137 173 10509 19 7 CRUISE
2024-09-25 18:23:04 137 173 10509 19 7 CRUISE
2024-09-25 18:24:05 137 173 10509 20 7 CRUISE
2024-09-25 18:25:06 137 173 10509 20 7 CRUISE
2024-09-25 18:26:06 137 173 10509 21 7 CRUISE
2024-09-25 18:27:07 137 173 10509 21 7 CRUISE
2024-09-25 18:28:08 137 173 10509 22 7 CRUISE
2024-09-25 18:29:08 137 173 10509 22 7 CRUISE
2024-09-25 18:30:09 137 173 10509 23 7 CRUISE
2024-09-25 18:31:10 137 173 10509 23 7 CRUISE
2024-09-25 18:32:10 137 173 10509 24 7 CRUISE
2024-09-25 18:33:11 137 173 10509 25 7 CRUISE
2024-09-25 18:34:11 137 173 10509 25 7 CRUISE
2024-09-25 18:35:12 137 173 10509 26 7 CRUISE
2024-09-25 18:36:13 137 173 10509 26 7 CRUISE
2024-09-25 18:37:13 137 173 10509 27 7 CRUISE
2024-09-25 18:38:14 137 173 10509 27 7 CRUISE
2024-09-25 18:39:15 137 173 10509 28 7 CRUISE
2024-09-25 18:40:15 137 173 10509 28 7 CRUISE
2024-09-25 18:41:16 137 173 10509 29 7 CRUISE
2024-09-25 18:42:17 137 173 10509 30 7 CRUISE